sensor_id;sensor_type;location;lat;lon;timestamp;P1;durP1;ratioP1;P2;durP2;ratioP2
74945;SDS011;63509;45.250;38.102;2022-12-07T00:03:36;11.75;;;4.57;;
74945;SDS011;63509;45.250;38.102;2022-12-07T00:06:03;12.57;;;5.05;;
74945;SDS011;63509;45.250;38.102;2022-12-07T00:08:31;11.20;;;6.35;;
74945;SDS011;63509;45.250;38.102;2022-12-07T00:11:04;10.27;;;4.65;;
74945;SDS011;63509;45.250;38.102;2022-12-07T00:13:32;7.13;;;3.95;;
74945;SDS011;63509;45.250;38.102;2022-12-07T00:16:04;7.63;;;4.50;;
74945;SDS011;63509;45.250;38.102;2022-12-07T00:18:35;6.30;;;3.53;;
74945;SDS011;63509;45.250;38.102;2022-12-07T00:21:02;7.30;;;3.92;;
74945;SDS011;63509;45.250;38.102;2022-12-07T00:23:30;11.45;;;4.25;;
74945;SDS011;63509;45.250;38.102;2022-12-07T00:26:02;8.45;;;4.40;;
74945;SDS011;63509;45.250;38.102;2022-12-07T00:28:29;8.82;;;4.38;;
74945;SDS011;63509;45.250;38.102;2022-12-07T00:31:03;7.50;;;3.88;;
74945;SDS011;63509;45.250;38.102;2022-12-07T00:33:31;9.27;;;3.80;;
74945;SDS011;63509;45.250;38.102;2022-12-07T00:35:58;7.55;;;3.72;;
74945;SDS011;63509;45.250;38.102;2022-12-07T00:38:27;8.93;;;4.38;;
74945;SDS011;63509;45.250;38.102;2022-12-07T00:40:55;7.55;;;3.75;;
74945;SDS011;63509;45.250;38.102;2022-12-07T00:43:26;7.57;;;3.92;;
74945;SDS011;63509;45.250;38.102;2022-12-07T00:45:52;7.88;;;3.15;;
74945;SDS011;63509;45.250;38.102;2022-12-07T00:48:19;9.80;;;3.80;;
74945;SDS011;63509;45.250;38.102;2022-12-07T00:50:46;7.28;;;3.63;;
74945;SDS011;63509;45.250;38.102;2022-12-07T00:53:13;8.35;;;3.72;;
74945;SDS011;63509;45.250;38.102;2022-12-07T00:55:39;12.50;;;4.38;;
74945;SDS011;63509;45.250;38.102;2022-12-07T00:58:05;8.50;;;3.85;;
74945;SDS011;63509;45.250;38.102;2022-12-07T01:00:32;8.52;;;3.58;;
74945;SDS011;63509;45.250;38.102;2022-12-07T01:02:59;6.75;;;3.35;;
74945;SDS011;63509;45.250;38.102;2022-12-07T01:05:25;8.23;;;3.90;;
74945;SDS011;63509;45.250;38.102;2022-12-07T01:07:51;6.05;;;3.65;;
74945;SDS011;63509;45.250;38.102;2022-12-07T01:10:17;10.32;;;4.15;;
74945;SDS011;63509;45.250;38.102;2022-12-07T01:12:43;8.90;;;4.68;;
74945;SDS011;63509;45.250;38.102;2022-12-07T01:15:09;6.28;;;3.30;;
74945;SDS011;63509;45.250;38.102;2022-12-07T01:17:35;7.97;;;4.20;;
74945;SDS011;63509;45.250;38.102;2022-12-07T01:20:02;7.15;;;4.20;;
74945;SDS011;63509;45.250;38.102;2022-12-07T01:22:29;15.05;;;4.63;;
74945;SDS011;63509;45.250;38.102;2022-12-07T01:24:55;6.38;;;3.22;;
74945;SDS011;63509;45.250;38.102;2022-12-07T01:27:21;8.15;;;3.72;;
74945;SDS011;63509;45.250;38.102;2022-12-07T01:29:47;7.82;;;3.80;;
74945;SDS011;63509;45.250;38.102;2022-12-07T01:32:13;13.18;;;4.43;;
74945;SDS011;63509;45.250;38.102;2022-12-07T01:34:39;9.05;;;4.57;;
74945;SDS011;63509;45.250;38.102;2022-12-07T01:37:05;9.98;;;3.90;;
74945;SDS011;63509;45.250;38.102;2022-12-07T01:39:32;6.13;;;3.92;;
74945;SDS011;63509;45.250;38.102;2022-12-07T01:41:58;13.95;;;4.68;;
74945;SDS011;63509;45.250;38.102;2022-12-07T01:49:21;9.38;;;4.13;;
74945;SDS011;63509;45.250;38.102;2022-12-07T01:51:52;12.18;;;4.03;;
74945;SDS011;63509;45.250;38.102;2022-12-07T01:54:25;10.60;;;5.13;;
74945;SDS011;63509;45.250;38.102;2022-12-07T01:56:52;14.57;;;4.88;;
74945;SDS011;63509;45.250;38.102;2022-12-07T01:59:21;9.02;;;4.32;;
74945;SDS011;63509;45.250;38.102;2022-12-07T02:01:51;8.45;;;3.65;;
74945;SDS011;63509;45.250;38.102;2022-12-07T02:04:18;7.72;;;4.22;;
74945;SDS011;63509;45.250;38.102;2022-12-07T02:06:45;8.07;;;4.60;;
74945;SDS011;63509;45.250;38.102;2022-12-07T02:09:12;8.38;;;3.67;;
74945;SDS011;63509;45.250;38.102;2022-12-07T02:11:39;11.40;;;4.22;;
74945;SDS011;63509;45.250;38.102;2022-12-07T02:14:06;8.40;;;4.65;;
74945;SDS011;63509;45.250;38.102;2022-12-07T02:16:41;8.20;;;4.20;;
74945;SDS011;63509;45.250;38.102;2022-12-07T02:30:47;8.90;;;4.30;;
74945;SDS011;63509;45.250;38.102;2022-12-07T02:33:19;9.23;;;4.35;;
74945;SDS011;63509;45.250;38.102;2022-12-07T02:38:29;12.75;;;4.80;;
74945;SDS011;63509;45.250;38.102;2022-12-07T02:41:16;7.53;;;3.88;;
74945;SDS011;63509;45.250;38.102;2022-12-07T02:43:59;7.07;;;4.70;;
74945;SDS011;63509;45.250;38.102;2022-12-07T02:46:30;7.93;;;4.13;;
74945;SDS011;63509;45.250;38.102;2022-12-07T02:49:00;9.82;;;4.20;;
74945;SDS011;63509;45.250;38.102;2022-12-07T02:51:29;7.60;;;3.97;;
74945;SDS011;63509;45.250;38.102;2022-12-07T02:53:56;7.97;;;3.88;;
74945;SDS011;63509;45.250;38.102;2022-12-07T03:08:00;7.30;;;4.07;;
74945;SDS011;63509;45.250;38.102;2022-12-07T03:10:36;7.15;;;4.78;;
74945;SDS011;63509;45.250;38.102;2022-12-07T03:18:49;6.82;;;4.13;;
74945;SDS011;63509;45.250;38.102;2022-12-07T03:21:21;11.48;;;4.65;;
74945;SDS011;63509;45.250;38.102;2022-12-07T03:23:54;11.60;;;4.30;;
74945;SDS011;63509;45.250;38.102;2022-12-07T03:26:24;7.03;;;4.45;;
74945;SDS011;63509;45.250;38.102;2022-12-07T03:29:12;8.50;;;4.20;;
74945;SDS011;63509;45.250;38.102;2022-12-07T03:31:50;15.40;;;4.72;;
74945;SDS011;63509;45.250;38.102;2022-12-07T03:34:30;11.40;;;4.95;;
74945;SDS011;63509;45.250;38.102;2022-12-07T03:37:12;7.65;;;4.05;;
74945;SDS011;63509;45.250;38.102;2022-12-07T03:42:30;8.30;;;4.90;;
74945;SDS011;63509;45.250;38.102;2022-12-07T03:44:58;8.35;;;4.35;;
74945;SDS011;63509;45.250;38.102;2022-12-07T03:47:33;7.53;;;4.50;;
74945;SDS011;63509;45.250;38.102;2022-12-07T03:50:07;6.82;;;4.32;;
74945;SDS011;63509;45.250;38.102;2022-12-07T03:52:42;8.15;;;4.57;;
74945;SDS011;63509;45.250;38.102;2022-12-07T03:57:49;8.60;;;4.45;;
74945;SDS011;63509;45.250;38.102;2022-12-07T04:00:18;7.18;;;4.18;;
74945;SDS011;63509;45.250;38.102;2022-12-07T04:02:44;10.48;;;4.65;;
74945;SDS011;63509;45.250;38.102;2022-12-07T04:05:11;10.77;;;5.40;;
74945;SDS011;63509;45.250;38.102;2022-12-07T04:07:37;11.32;;;6.13;;
74945;SDS011;63509;45.250;38.102;2022-12-07T04:10:03;10.93;;;5.53;;
74945;SDS011;63509;45.250;38.102;2022-12-07T04:12:30;8.55;;;4.10;;
74945;SDS011;63509;45.250;38.102;2022-12-07T04:14:56;12.27;;;4.60;;
74945;SDS011;63509;45.250;38.102;2022-12-07T04:17:22;8.77;;;4.72;;
74945;SDS011;63509;45.250;38.102;2022-12-07T04:19:48;8.95;;;4.45;;
74945;SDS011;63509;45.250;38.102;2022-12-07T04:22:15;8.82;;;5.28;;
74945;SDS011;63509;45.250;38.102;2022-12-07T04:24:41;8.35;;;5.07;;
74945;SDS011;63509;45.250;38.102;2022-12-07T04:27:07;14.15;;;6.47;;
74945;SDS011;63509;45.250;38.102;2022-12-07T04:29:33;11.98;;;5.72;;
74945;SDS011;63509;45.250;38.102;2022-12-07T04:31:59;13.05;;;5.40;;
74945;SDS011;63509;45.250;38.102;2022-12-07T04:34:25;10.32;;;4.95;;
74945;SDS011;63509;45.250;38.102;2022-12-07T04:36:51;8.93;;;4.43;;
74945;SDS011;63509;45.250;38.102;2022-12-07T04:39:19;7.72;;;4.60;;
74945;SDS011;63509;45.250;38.102;2022-12-07T04:41:53;8.07;;;4.30;;
74945;SDS011;63509;45.250;38.102;2022-12-07T04:44:19;8.48;;;5.22;;
74945;SDS011;63509;45.250;38.102;2022-12-07T04:46:47;14.27;;;5.13;;
74945;SDS011;63509;45.250;38.102;2022-12-07T04:49:14;10.35;;;4.70;;
74945;SDS011;63509;45.250;38.102;2022-12-07T04:51:40;12.05;;;5.18;;
74945;SDS011;63509;45.250;38.102;2022-12-07T04:54:06;9.35;;;4.90;;
74945;SDS011;63509;45.250;38.102;2022-12-07T04:56:33;11.98;;;4.28;;
74945;SDS011;63509;45.250;38.102;2022-12-07T04:59:00;10.63;;;4.72;;
74945;SDS011;63509;45.250;38.102;2022-12-07T05:01:26;8.27;;;4.53;;
74945;SDS011;63509;45.250;38.102;2022-12-07T05:03:52;11.27;;;4.65;;
74945;SDS011;63509;45.250;38.102;2022-12-07T05:06:19;10.52;;;5.18;;
74945;SDS011;63509;45.250;38.102;2022-12-07T05:08:45;10.00;;;5.38;;
74945;SDS011;63509;45.250;38.102;2022-12-07T05:11:12;14.70;;;5.15;;
74945;SDS011;63509;45.250;38.102;2022-12-07T05:13:58;11.25;;;4.95;;
74945;SDS011;63509;45.250;38.102;2022-12-07T05:16:24;8.60;;;4.57;;
74945;SDS011;63509;45.250;38.102;2022-12-07T05:18:50;8.13;;;4.68;;
74945;SDS011;63509;45.250;38.102;2022-12-07T05:21:16;11.68;;;5.15;;
74945;SDS011;63509;45.250;38.102;2022-12-07T05:23:42;11.25;;;5.13;;
74945;SDS011;63509;45.250;38.102;2022-12-07T05:26:08;9.57;;;4.97;;
74945;SDS011;63509;45.250;38.102;2022-12-07T05:28:35;9.88;;;5.03;;
74945;SDS011;63509;45.250;38.102;2022-12-07T05:31:01;10.25;;;4.97;;
74945;SDS011;63509;45.250;38.102;2022-12-07T05:33:27;11.38;;;6.22;;
74945;SDS011;63509;45.250;38.102;2022-12-07T05:35:53;9.40;;;5.20;;
74945;SDS011;63509;45.250;38.102;2022-12-07T05:38:19;10.60;;;5.20;;
74945;SDS011;63509;45.250;38.102;2022-12-07T05:40:45;9.45;;;5.22;;
74945;SDS011;63509;45.250;38.102;2022-12-07T05:43:11;11.13;;;5.93;;
74945;SDS011;63509;45.250;38.102;2022-12-07T05:45:37;14.48;;;4.72;;
74945;SDS011;63509;45.250;38.102;2022-12-07T05:48:03;10.05;;;4.60;;
74945;SDS011;63509;45.250;38.102;2022-12-07T05:50:29;12.38;;;5.68;;
74945;SDS011;63509;45.250;38.102;2022-12-07T05:53:01;9.88;;;4.68;;
74945;SDS011;63509;45.250;38.102;2022-12-07T05:55:27;12.23;;;5.72;;
74945;SDS011;63509;45.250;38.102;2022-12-07T05:57:53;13.27;;;6.22;;
74945;SDS011;63509;45.250;38.102;2022-12-07T06:00:37;9.38;;;4.65;;
74945;SDS011;63509;45.250;38.102;2022-12-07T06:03:03;10.75;;;4.65;;
74945;SDS011;63509;45.250;38.102;2022-12-07T06:05:29;9.32;;;5.65;;
74945;SDS011;63509;45.250;38.102;2022-12-07T06:07:55;11.30;;;5.40;;
74945;SDS011;63509;45.250;38.102;2022-12-07T06:10:21;12.70;;;6.05;;
74945;SDS011;63509;45.250;38.102;2022-12-07T06:12:48;11.15;;;5.40;;
74945;SDS011;63509;45.250;38.102;2022-12-07T06:15:15;11.57;;;5.25;;
74945;SDS011;63509;45.250;38.102;2022-12-07T06:17:41;12.07;;;5.18;;
74945;SDS011;63509;45.250;38.102;2022-12-07T06:20:07;10.50;;;5.15;;
74945;SDS011;63509;45.250;38.102;2022-12-07T06:22:34;9.63;;;5.43;;
74945;SDS011;63509;45.250;38.102;2022-12-07T06:25:00;7.15;;;4.13;;
74945;SDS011;63509;45.250;38.102;2022-12-07T06:27:26;10.88;;;5.50;;
74945;SDS011;63509;45.250;38.102;2022-12-07T06:29:52;11.20;;;4.90;;
74945;SDS011;63509;45.250;38.102;2022-12-07T06:32:18;12.38;;;5.40;;
74945;SDS011;63509;45.250;38.102;2022-12-07T06:34:45;10.38;;;5.18;;
74945;SDS011;63509;45.250;38.102;2022-12-07T06:37:12;8.80;;;5.15;;
74945;SDS011;63509;45.250;38.102;2022-12-07T06:39:38;12.45;;;5.65;;
74945;SDS011;63509;45.250;38.102;2022-12-07T06:42:04;9.88;;;4.97;;
74945;SDS011;63509;45.250;38.102;2022-12-07T06:44:31;11.07;;;5.13;;
74945;SDS011;63509;45.250;38.102;2022-12-07T06:46:58;9.60;;;4.78;;
74945;SDS011;63509;45.250;38.102;2022-12-07T06:49:24;13.57;;;4.78;;
74945;SDS011;63509;45.250;38.102;2022-12-07T06:51:50;12.07;;;5.32;;
74945;SDS011;63509;45.250;38.102;2022-12-07T06:54:16;9.48;;;5.10;;
74945;SDS011;63509;45.250;38.102;2022-12-07T06:56:42;11.35;;;4.72;;
74945;SDS011;63509;45.250;38.102;2022-12-07T06:59:09;14.40;;;5.53;;
74945;SDS011;63509;45.250;38.102;2022-12-07T07:01:35;15.00;;;5.57;;
74945;SDS011;63509;45.250;38.102;2022-12-07T07:04:02;11.27;;;5.50;;
74945;SDS011;63509;45.250;38.102;2022-12-07T07:06:28;11.05;;;5.72;;
74945;SDS011;63509;45.250;38.102;2022-12-07T07:08:54;13.00;;;5.72;;
74945;SDS011;63509;45.250;38.102;2022-12-07T07:11:20;18.15;;;6.38;;
74945;SDS011;63509;45.250;38.102;2022-12-07T07:13:46;10.40;;;5.07;;
74945;SDS011;63509;45.250;38.102;2022-12-07T07:16:12;13.75;;;6.45;;
74945;SDS011;63509;45.250;38.102;2022-12-07T07:18:38;12.25;;;6.10;;
74945;SDS011;63509;45.250;38.102;2022-12-07T07:21:04;12.20;;;6.00;;
74945;SDS011;63509;45.250;38.102;2022-12-07T07:23:30;12.52;;;6.25;;
74945;SDS011;63509;45.250;38.102;2022-12-07T07:25:56;19.20;;;6.70;;
74945;SDS011;63509;45.250;38.102;2022-12-07T07:28:23;17.52;;;5.65;;
74945;SDS011;63509;45.250;38.102;2022-12-07T07:30:49;26.40;;;6.78;;
74945;SDS011;63509;45.250;38.102;2022-12-07T07:33:15;14.30;;;5.97;;
74945;SDS011;63509;45.250;38.102;2022-12-07T07:35:41;15.60;;;6.22;;
74945;SDS011;63509;45.250;38.102;2022-12-07T07:38:07;17.75;;;6.75;;
74945;SDS011;63509;45.250;38.102;2022-12-07T07:40:33;13.07;;;5.75;;
74945;SDS011;63509;45.250;38.102;2022-12-07T07:43:00;11.50;;;4.53;;
74945;SDS011;63509;45.250;38.102;2022-12-07T07:45:26;14.13;;;6.70;;
74945;SDS011;63509;45.250;38.102;2022-12-07T07:47:53;14.82;;;6.55;;
74945;SDS011;63509;45.250;38.102;2022-12-07T07:50:19;13.30;;;6.15;;
74945;SDS011;63509;45.250;38.102;2022-12-07T07:52:46;13.13;;;5.82;;
74945;SDS011;63509;45.250;38.102;2022-12-07T07:55:12;20.98;;;5.72;;
74945;SDS011;63509;45.250;38.102;2022-12-07T07:57:39;15.07;;;6.53;;
74945;SDS011;63509;45.250;38.102;2022-12-07T08:00:07;13.38;;;6.13;;
74945;SDS011;63509;45.250;38.102;2022-12-07T08:02:38;19.65;;;5.90;;
74945;SDS011;63509;45.250;38.102;2022-12-07T08:05:05;15.82;;;6.45;;
74945;SDS011;63509;45.250;38.102;2022-12-07T08:07:32;13.82;;;5.72;;
74945;SDS011;63509;45.250;38.102;2022-12-07T08:09:58;9.70;;;5.10;;
74945;SDS011;63509;45.250;38.102;2022-12-07T08:12:24;14.30;;;6.35;;
74945;SDS011;63509;45.250;38.102;2022-12-07T08:14:50;13.93;;;6.63;;
74945;SDS011;63509;45.250;38.102;2022-12-07T08:17:16;17.98;;;5.95;;
74945;SDS011;63509;45.250;38.102;2022-12-07T08:19:42;17.40;;;6.72;;
74945;SDS011;63509;45.250;38.102;2022-12-07T08:22:08;14.95;;;5.30;;
74945;SDS011;63509;45.250;38.102;2022-12-07T08:24:35;21.30;;;5.65;;
74945;SDS011;63509;45.250;38.102;2022-12-07T08:27:02;13.77;;;5.60;;
74945;SDS011;63509;45.250;38.102;2022-12-07T08:29:29;10.50;;;6.28;;
74945;SDS011;63509;45.250;38.102;2022-12-07T08:31:55;16.67;;;6.03;;
74945;SDS011;63509;45.250;38.102;2022-12-07T08:34:21;15.65;;;6.10;;
74945;SDS011;63509;45.250;38.102;2022-12-07T08:36:47;22.75;;;6.18;;
74945;SDS011;63509;45.250;38.102;2022-12-07T08:39:13;11.35;;;6.30;;
74945;SDS011;63509;45.250;38.102;2022-12-07T08:41:39;12.90;;;5.95;;
74945;SDS011;63509;45.250;38.102;2022-12-07T08:44:05;26.10;;;6.55;;
74945;SDS011;63509;45.250;38.102;2022-12-07T08:46:33;15.45;;;6.53;;
74945;SDS011;63509;45.250;38.102;2022-12-07T08:49:11;12.13;;;6.65;;
74945;SDS011;63509;45.250;38.102;2022-12-07T08:51:40;21.17;;;6.05;;
74945;SDS011;63509;45.250;38.102;2022-12-07T08:54:08;16.02;;;6.80;;
74945;SDS011;63509;45.250;38.102;2022-12-07T08:56:37;22.27;;;7.32;;
74945;SDS011;63509;45.250;38.102;2022-12-07T08:59:04;17.38;;;7.75;;
74945;SDS011;63509;45.250;38.102;2022-12-07T09:01:31;16.52;;;6.85;;
74945;SDS011;63509;45.250;38.102;2022-12-07T09:03:56;17.52;;;7.05;;
74945;SDS011;63509;45.250;38.102;2022-12-07T09:06:23;25.17;;;9.25;;
74945;SDS011;63509;45.250;38.102;2022-12-07T09:08:49;21.02;;;7.07;;
74945;SDS011;63509;45.250;38.102;2022-12-07T09:11:19;23.98;;;7.45;;
74945;SDS011;63509;45.250;38.102;2022-12-07T09:13:45;13.68;;;6.35;;
74945;SDS011;63509;45.250;38.102;2022-12-07T09:16:11;16.75;;;7.65;;
74945;SDS011;63509;45.250;38.102;2022-12-07T09:18:37;18.13;;;7.75;;
74945;SDS011;63509;45.250;38.102;2022-12-07T09:21:04;14.43;;;6.43;;
74945;SDS011;63509;45.250;38.102;2022-12-07T09:23:30;15.85;;;6.95;;
74945;SDS011;63509;45.250;38.102;2022-12-07T09:26:02;13.32;;;6.40;;
74945;SDS011;63509;45.250;38.102;2022-12-07T09:28:30;24.20;;;8.00;;
74945;SDS011;63509;45.250;38.102;2022-12-07T09:30:56;20.33;;;7.53;;
74945;SDS011;63509;45.250;38.102;2022-12-07T09:33:22;16.60;;;6.95;;
74945;SDS011;63509;45.250;38.102;2022-12-07T09:35:49;15.43;;;7.40;;
74945;SDS011;63509;45.250;38.102;2022-12-07T09:38:17;21.27;;;6.93;;
74945;SDS011;63509;45.250;38.102;2022-12-07T09:40:43;20.85;;;8.27;;
74945;SDS011;63509;45.250;38.102;2022-12-07T09:43:13;15.15;;;7.18;;
74945;SDS011;63509;45.250;38.102;2022-12-07T09:45:45;18.05;;;8.20;;
74945;SDS011;63509;45.250;38.102;2022-12-07T09:48:26;15.05;;;7.07;;
74945;SDS011;63509;45.250;38.102;2022-12-07T09:50:57;20.75;;;7.10;;
74945;SDS011;63509;45.250;38.102;2022-12-07T09:53:27;19.48;;;8.02;;
74945;SDS011;63509;45.250;38.102;2022-12-07T09:55:55;27.40;;;7.80;;
74945;SDS011;63509;45.250;38.102;2022-12-07T09:58:23;15.98;;;7.03;;
74945;SDS011;63509;45.250;38.102;2022-12-07T10:01:14;47.50;;;8.73;;
74945;SDS011;63509;45.250;38.102;2022-12-07T10:03:42;23.73;;;7.78;;
74945;SDS011;63509;45.250;38.102;2022-12-07T10:06:15;19.80;;;7.72;;
74945;SDS011;63509;45.250;38.102;2022-12-07T10:08:41;29.05;;;8.10;;
74945;SDS011;63509;45.250;38.102;2022-12-07T10:11:09;16.25;;;8.13;;
74945;SDS011;63509;45.250;38.102;2022-12-07T10:13:42;19.52;;;7.53;;
74945;SDS011;63509;45.250;38.102;2022-12-07T10:19:23;14.38;;;8.02;;
74945;SDS011;63509;45.250;38.102;2022-12-07T10:22:01;25.40;;;7.63;;
74945;SDS011;63509;45.250;38.102;2022-12-07T10:24:28;14.15;;;7.40;;
74945;SDS011;63509;45.250;38.102;2022-12-07T10:26:54;15.60;;;7.35;;
74945;SDS011;63509;45.250;38.102;2022-12-07T10:31:55;15.82;;;6.72;;
74945;SDS011;63509;45.250;38.102;2022-12-07T10:34:30;19.92;;;6.75;;
74945;SDS011;63509;45.250;38.102;2022-12-07T10:42:28;21.20;;;7.32;;
74945;SDS011;63509;45.250;38.102;2022-12-07T10:45:09;26.70;;;8.45;;
74945;SDS011;63509;45.250;38.102;2022-12-07T10:50:22;21.65;;;8.82;;
74945;SDS011;63509;45.250;38.102;2022-12-07T10:56:02;21.90;;;8.73;;
74945;SDS011;63509;45.250;38.102;2022-12-07T11:01:32;13.80;;;7.28;;
74945;SDS011;63509;45.250;38.102;2022-12-07T11:04:30;16.52;;;7.78;;
74945;SDS011;63509;45.250;38.102;2022-12-07T11:10:05;15.73;;;7.15;;
74945;SDS011;63509;45.250;38.102;2022-12-07T11:12:53;18.48;;;6.18;;
74945;SDS011;63509;45.250;38.102;2022-12-07T11:15:24;28.17;;;8.15;;
74945;SDS011;63509;45.250;38.102;2022-12-07T11:18:16;21.90;;;7.82;;
74945;SDS011;63509;45.250;38.102;2022-12-07T11:26:24;23.38;;;7.70;;
74945;SDS011;63509;45.250;38.102;2022-12-07T11:32:04;18.25;;;8.00;;
74945;SDS011;63509;45.250;38.102;2022-12-07T11:37:27;21.35;;;7.32;;
74945;SDS011;63509;45.250;38.102;2022-12-07T11:40:11;15.23;;;8.10;;
74945;SDS011;63509;45.250;38.102;2022-12-07T11:42:55;28.58;;;9.85;;
74945;SDS011;63509;45.250;38.102;2022-12-07T11:45:45;23.90;;;7.82;;
74945;SDS011;63509;45.250;38.102;2022-12-07T11:48:20;34.15;;;9.25;;
74945;SDS011;63509;45.250;38.102;2022-12-07T11:50:54;14.20;;;7.38;;
74945;SDS011;63509;45.250;38.102;2022-12-07T11:55:57;19.75;;;7.60;;
74945;SDS011;63509;45.250;38.102;2022-12-07T12:09:11;24.63;;;9.45;;
74945;SDS011;63509;45.250;38.102;2022-12-07T12:11:47;34.60;;;9.65;;
74945;SDS011;63509;45.250;38.102;2022-12-07T12:14:46;23.48;;;9.15;;
74945;SDS011;63509;45.250;38.102;2022-12-07T12:23:24;27.58;;;8.30;;
74945;SDS011;63509;45.250;38.102;2022-12-07T12:26:08;24.42;;;9.23;;
74945;SDS011;63509;45.250;38.102;2022-12-07T12:32:04;30.75;;;10.25;;
74945;SDS011;63509;45.250;38.102;2022-12-07T12:34:39;20.23;;;8.55;;
74945;SDS011;63509;45.250;38.102;2022-12-07T12:42:44;30.38;;;10.73;;
74945;SDS011;63509;45.250;38.102;2022-12-07T12:45:19;30.08;;;8.75;;
74945;SDS011;63509;45.250;38.102;2022-12-07T12:47:56;23.05;;;9.63;;
74945;SDS011;63509;45.250;38.102;2022-12-07T12:53:04;19.77;;;8.65;;
74945;SDS011;63509;45.250;38.102;2022-12-07T13:00:44;31.30;;;9.63;;
74945;SDS011;63509;45.250;38.102;2022-12-07T13:03:25;39.20;;;13.13;;
74945;SDS011;63509;45.250;38.102;2022-12-07T13:06:54;24.63;;;10.82;;
74945;SDS011;63509;45.250;38.102;2022-12-07T13:08:50;27.02;;;10.13;;
74945;SDS011;63509;45.250;38.102;2022-12-07T13:13:45;37.20;;;10.80;;
74945;SDS011;63509;45.250;38.102;2022-12-07T13:18:37;21.17;;;10.32;;
74945;SDS011;63509;45.250;38.102;2022-12-07T13:28:51;20.20;;;10.35;;
74945;SDS011;63509;45.250;38.102;2022-12-07T13:31:39;24.88;;;9.15;;
74945;SDS011;63509;45.250;38.102;2022-12-07T13:39:52;24.80;;;8.82;;
74945;SDS011;63509;45.250;38.102;2022-12-07T13:42:27;24.98;;;10.23;;
74945;SDS011;63509;45.250;38.102;2022-12-07T13:44:57;29.40;;;9.82;;
74945;SDS011;63509;45.250;38.102;2022-12-07T13:50:29;44.05;;;10.02;;
74945;SDS011;63509;45.250;38.102;2022-12-07T13:52:58;22.35;;;9.75;;
74945;SDS011;63509;45.250;38.102;2022-12-07T13:55:26;22.25;;;11.63;;
74945;SDS011;63509;45.250;38.102;2022-12-07T13:57:54;29.55;;;12.55;;
74945;SDS011;63509;45.250;38.102;2022-12-07T14:00:27;35.67;;;12.70;;
74945;SDS011;63509;45.250;38.102;2022-12-07T14:02:59;32.75;;;12.85;;
74945;SDS011;63509;45.250;38.102;2022-12-07T14:05:39;27.40;;;12.05;;
74945;SDS011;63509;45.250;38.102;2022-12-07T14:10:39;21.30;;;10.10;;
74945;SDS011;63509;45.250;38.102;2022-12-07T14:16:01;19.40;;;9.80;;
74945;SDS011;63509;45.250;38.102;2022-12-07T14:18:30;26.52;;;10.13;;
74945;SDS011;63509;45.250;38.102;2022-12-07T14:21:04;23.30;;;10.70;;
74945;SDS011;63509;45.250;38.102;2022-12-07T14:23:30;27.42;;;10.00;;
74945;SDS011;63509;45.250;38.102;2022-12-07T14:26:12;36.20;;;10.98;;
74945;SDS011;63509;45.250;38.102;2022-12-07T14:28:46;20.73;;;9.85;;
74945;SDS011;63509;45.250;38.102;2022-12-07T14:31:21;21.88;;;10.43;;
74945;SDS011;63509;45.250;38.102;2022-12-07T14:33:50;20.60;;;10.05;;
74945;SDS011;63509;45.250;38.102;2022-12-07T14:36:16;20.25;;;10.00;;
74945;SDS011;63509;45.250;38.102;2022-12-07T14:38:42;17.02;;;8.82;;
74945;SDS011;63509;45.250;38.102;2022-12-07T14:41:15;25.50;;;10.07;;
74945;SDS011;63509;45.250;38.102;2022-12-07T14:44:11;20.35;;;8.55;;
74945;SDS011;63509;45.250;38.102;2022-12-07T14:46:38;18.80;;;9.18;;
74945;SDS011;63509;45.250;38.102;2022-12-07T14:49:04;16.05;;;9.40;;
74945;SDS011;63509;45.250;38.102;2022-12-07T14:51:30;20.90;;;9.73;;
74945;SDS011;63509;45.250;38.102;2022-12-07T14:53:57;20.10;;;8.73;;
74945;SDS011;63509;45.250;38.102;2022-12-07T14:56:23;20.50;;;10.02;;
74945;SDS011;63509;45.250;38.102;2022-12-07T14:58:50;17.40;;;9.75;;
74945;SDS011;63509;45.250;38.102;2022-12-07T15:01:16;20.15;;;10.10;;
74945;SDS011;63509;45.250;38.102;2022-12-07T15:03:42;16.05;;;8.43;;
74945;SDS011;63509;45.250;38.102;2022-12-07T15:06:10;16.52;;;9.32;;
74945;SDS011;63509;45.250;38.102;2022-12-07T15:08:40;20.42;;;10.35;;
74945;SDS011;63509;45.250;38.102;2022-12-07T15:11:06;20.73;;;9.95;;
74945;SDS011;63509;45.250;38.102;2022-12-07T15:13:34;24.95;;;10.15;;
74945;SDS011;63509;45.250;38.102;2022-12-07T15:16:19;15.95;;;8.65;;
74945;SDS011;63509;45.250;38.102;2022-12-07T15:18:46;20.25;;;9.40;;
74945;SDS011;63509;45.250;38.102;2022-12-07T15:21:13;18.30;;;9.00;;
74945;SDS011;63509;45.250;38.102;2022-12-07T15:23:40;20.83;;;9.55;;
74945;SDS011;63509;45.250;38.102;2022-12-07T15:26:06;21.35;;;10.32;;
74945;SDS011;63509;45.250;38.102;2022-12-07T15:28:33;21.08;;;9.40;;
74945;SDS011;63509;45.250;38.102;2022-12-07T15:30:59;18.63;;;9.30;;
74945;SDS011;63509;45.250;38.102;2022-12-07T15:33:26;23.73;;;9.80;;
74945;SDS011;63509;45.250;38.102;2022-12-07T15:35:52;18.05;;;8.55;;
74945;SDS011;63509;45.250;38.102;2022-12-07T15:38:18;21.45;;;10.63;;
74945;SDS011;63509;45.250;38.102;2022-12-07T15:40:46;26.30;;;11.25;;
74945;SDS011;63509;45.250;38.102;2022-12-07T15:43:12;20.05;;;9.60;;
74945;SDS011;63509;45.250;38.102;2022-12-07T16:19:14;13.52;;;7.78;;
74945;SDS011;63509;45.250;38.102;2022-12-07T16:21:40;14.95;;;7.65;;
74945;SDS011;63509;45.250;38.102;2022-12-07T16:24:07;16.08;;;7.95;;
74945;SDS011;63509;45.250;38.102;2022-12-07T16:26:35;17.02;;;8.05;;
74945;SDS011;63509;45.250;38.102;2022-12-07T16:29:02;15.63;;;8.45;;
74945;SDS011;63509;45.250;38.102;2022-12-07T16:31:28;21.55;;;7.70;;
74945;SDS011;63509;45.250;38.102;2022-12-07T16:33:55;21.95;;;8.38;;
74945;SDS011;63509;45.250;38.102;2022-12-07T16:36:23;19.83;;;9.75;;
74945;SDS011;63509;45.250;38.102;2022-12-07T16:38:52;27.85;;;9.00;;
74945;SDS011;63509;45.250;38.102;2022-12-07T16:41:18;23.75;;;8.60;;
74945;SDS011;63509;45.250;38.102;2022-12-07T16:43:44;22.15;;;8.63;;
74945;SDS011;63509;45.250;38.102;2022-12-07T16:46:11;18.33;;;8.55;;
74945;SDS011;63509;45.250;38.102;2022-12-07T16:48:37;35.53;;;10.00;;
74945;SDS011;63509;45.250;38.102;2022-12-07T16:51:05;17.20;;;8.45;;
74945;SDS011;63509;45.250;38.102;2022-12-07T16:55:59;18.58;;;8.02;;
74945;SDS011;63509;45.250;38.102;2022-12-07T16:58:25;14.85;;;8.43;;
74945;SDS011;63509;45.250;38.102;2022-12-07T17:00:52;30.42;;;10.13;;
74945;SDS011;63509;45.250;38.102;2022-12-07T17:03:18;16.63;;;9.25;;
74945;SDS011;63509;45.250;38.102;2022-12-07T17:05:44;25.15;;;9.05;;
74945;SDS011;63509;45.250;38.102;2022-12-07T17:08:12;16.83;;;8.75;;
74945;SDS011;63509;45.250;38.102;2022-12-07T17:10:39;24.55;;;9.32;;
74945;SDS011;63509;45.250;38.102;2022-12-07T17:13:07;20.30;;;8.60;;
74945;SDS011;63509;45.250;38.102;2022-12-07T17:15:54;26.10;;;9.18;;
74945;SDS011;63509;45.250;38.102;2022-12-07T17:18:21;17.77;;;8.57;;
74945;SDS011;63509;45.250;38.102;2022-12-07T17:20:47;25.58;;;8.80;;
74945;SDS011;63509;45.250;38.102;2022-12-07T17:23:13;13.65;;;7.80;;
74945;SDS011;63509;45.250;38.102;2022-12-07T17:25:39;19.05;;;8.63;;
74945;SDS011;63509;45.250;38.102;2022-12-07T17:28:05;20.60;;;7.65;;
74945;SDS011;63509;45.250;38.102;2022-12-07T17:30:31;21.42;;;8.70;;
74945;SDS011;63509;45.250;38.102;2022-12-07T17:32:57;19.40;;;9.07;;